No Warnings, Watches, or Advisories

Active alerts


No alerts

Amazon Weather

Hours of Daylight

15 hrs 6 min 46 sec
of Daylight Today
62.9% Day 37.1% Night Which is 18 sec Longer
Than Yesterday

South Webcam more information South Webcam


Anemometer Webcam more information Anemometer Webcam


You find our weather info also at:

UK Metoffice

Weather Underground

Mid-Atlantic Weather Network

WeatherlinkIP

Citizen Weather Observer Program (CWOP)

HAMweather, WeatherForYou, PWS Weather



Nearby METAR Reports

   
KDUJ - Du Bois, Pennsylvania, USA
Distance from station: NNE 16 mi
Updated: Jun 16 2019 2:41 am
Light Rain, Mist, Overcast  
Light Rain, Mist, Overcast  
   Wind: South 3.5 mph
Wind: South 3.5 mph
Temperature: 60.8°F
Dew Point: 60.8°F
Humidity: 100%
Barometer: 29.91 inHg
Clouds: Overcast
Visibility: 4 mi
Cloud details: Mostly Cloudy 600 ft,
Mostly Cloudy 1100 ft,
Overcast 3900 ft
KDUJ 160641Z AUTO 19003KT 4SM -RA BR BKN006 BKN011 OVC039 16/16 A2991 RMK AO2 P0004 T01610156
KIDI - Indiana/Stewart, Pennsylvania, USA
Distance from station: SSW 23 mi
Updated: Jun 16 2019 2:55 am
Overcast  
Overcast  
   Wind: ESE 5.8 mph
Wind: ESE 5.8 mph
Temperature: 64.4°F
Dew Point: 62.6°F
Humidity: 94%
Barometer: 29.93 inHg
Clouds: Overcast
Visibility: 10 mi
Cloud details: Few Clouds 300 ft,
Mostly Cloudy 6000 ft,
Overcast 7000 ft
KIDI 160655Z AUTO 11005KT 10SM FEW003 BKN060 OVC070 18/17 A2993 RMK A01
KFIG - Clearfield, Pennsylvania, USA
Distance from station: ENE 31 mi
Updated: Jun 16 2019 2:54 am
Light Rain, Mostly Cloudy  
Light Rain, Mostly Cloudy  
   Wind: Calm
Wind: Calm
Temperature: 62.6°F
Dew Point: 60.8°F
Humidity: 94%
Barometer: 29.92 inHg
Clouds: Mostly Cloudy
Visibility: 9 mi
Cloud details: Few Clouds 5000 ft,
Partly Cloudy 7000 ft,
Mostly Cloudy 10000 ft
KFIG 160654Z AUTO 00000KT 9SM -RA FEW050 SCT070 BKN100 17/16 A2992 RMK AO2 SLP124 P0002 T01670161
KJST - Johnstown, Pennsylvania, USA
Distance from station: S 44 mi
Updated: Jun 16 2019 2:54 am
Overcast  
Overcast  
   Wind: SSW 9.2 mph
Wind: SSW 9.2 mph
Temperature: 68°F
Dew Point: 53.6°F
Humidity: 60%
Barometer: 29.93 inHg
Clouds: Overcast
Visibility: 10 mi
Cloud details: Mostly Cloudy 7500 ft,
Overcast 9000 ft
KJST 160654Z AUTO 20008KT 10SM BKN075 OVC090 20/12 A2993 RMK AO2 SLP121 T02000117 $
KPIT - Pittsburgh, Pennsylvania, USA
Distance from station: WSW 74 mi
Updated: Jun 16 2019 2:51 am
Light Rain, Overcast  
Light Rain, Overcast  
   Wind: Calm
Wind: Calm
Temperature: 66.2°F
Dew Point: 64.4°F
Humidity: 94%
Barometer: 29.87 inHg
Clouds: Overcast
Visibility: 9 mi
Cloud details: Few Clouds 4200 ft,
Overcast 6000 ft
KPIT 160651Z 00000KT 9SM -RA FEW042 OVC060 19/18 A2987 RMK AO2 SLP116 P0001 T01890178 $
KLBE - Latrobe/Westmorl, Pennsylvania, USA
Distance from station: SSW 52 mi
Updated: Jun 16 2019 2:55 am
Mostly Cloudy  
Mostly Cloudy  
   Wind: SSW 8.1 mph
Wind: SSW 8.1 mph
Temperature: 71.6°F
Dew Point: 55.4°F
Humidity: 57%
Barometer: 29.88 inHg
Clouds: Mostly Cloudy
Visibility: 10 mi
Cloud details: Mostly Cloudy 7000 ft
KLBE 160655Z AUTO 21007KT 10SM BKN070 22/13 A2988 RMK AO2
KBTP - Butler Co., Pennsylvania, USA
Distance from station: WSW 52 mi
Updated: Jun 16 2019 2:56 am
Light Rain, Overcast  
Light Rain, Overcast  
   Wind: Calm
Wind: Calm
Temperature: 62.6°F
Dew Point: 62.6°F
Humidity: 100%
Barometer: 29.88 inHg
Clouds: Overcast
Visibility: 7 mi
Cloud details: Mostly Cloudy 4700 ft,
Overcast 6000 ft
KBTP 160656Z AUTO 00000KT 7SM -RA BKN047 OVC060 17/17 A2988 RMK AO2 SLP116 P0004 T01720172
KUCP - New Castle Muni, Pennsylvania, USA
Distance from station: W 75 mi
Updated: Jun 16 2019 2:56 am
Light Rain, Overcast  
Light Rain, Overcast  
   Wind: varies 4.6 mph
Wind: varies 4.6 mph
Temperature: 64.4°F
Dew Point: 62.6°F
Humidity: 94%
Barometer: 29.85 inHg
Clouds: Overcast
Visibility: 10 mi
Cloud details: Mostly Cloudy 3800 ft,
Mostly Cloudy 4500 ft,
Overcast 11000 ft
KUCP 160656Z AUTO VRB04KT 10SM -RA BKN038 BKN045 OVC110 18/17 A2985 RMK AO2 SLP116 T01780172 PNO $
KFKL - Franklin, Pennsylvania, USA
Distance from station: WNW 54 mi
Updated: Jun 16 2019 2:56 am
Light Rain, Mist, Overcast  
Light Rain, Mist, Overcast  
   Wind: SSE 5.8 mph
Wind: SSE 5.8 mph
Temperature: 62.6°F
Dew Point: 62.6°F
Humidity: 100%
Barometer: 29.87 inHg
Clouds: Overcast
Visibility: 6 mi
Cloud details: Partly Cloudy 400 ft,
Mostly Cloudy 800 ft,
Overcast 1400 ft
KFKL 160656Z AUTO 16005KT 6SM -RA BR SCT004 BKN008 OVC014 17/17 A2987 RMK AO2 CIG 007V011 SLP110 P0014 T01720167
KAOO - Altoona, Pennsylvania, USA
Distance from station: SE 57 mi
Updated: Jun 16 2019 2:53 am
Mostly Cloudy  
Mostly Cloudy  
   Wind: SW 5.8 mph
Wind: SW 5.8 mph
Temperature: 64.4°F
Dew Point: 57.2°F
Humidity: 78%
Barometer: 29.92 inHg
Clouds: Mostly Cloudy
Visibility: 10 mi
Cloud details: Mostly Cloudy 8000 ft,
Mostly Cloudy 10000 ft
KAOO 160653Z AUTO 22005KT 10SM BKN080 BKN100 18/14 A2992 RMK AO2 SLP125 T01830139
KUNV - State College, Pennsylvania, USA
Distance from station: E 61 mi
Updated: Jun 16 2019 2:56 am
Overcast  
Overcast  
   Wind: Calm
Wind: Calm
Temperature: 62.6°F
Dew Point: 60.8°F
Humidity: 94%
Barometer: 29.93 inHg
Clouds: Overcast
Visibility: 10 mi
Cloud details: Partly Cloudy 5000 ft,
Overcast 6000 ft
KUNV 160656Z AUTO 00000KT 10SM SCT050 OVC060 17/16 A2993 RMK AO2 T01730155
KBFD - Bradford, Pennsylvania, USA
Distance from station: NNE 62 mi
Updated: Jun 16 2019 2:53 am
Light Rain, Mist, Overcast  
Light Rain, Mist, Overcast  
   Wind: SSE 3.5 mph
Wind: SSE 3.5 mph
Temperature: 60.8°F
Dew Point: 60.8°F
Humidity: 100%
Barometer: 29.91 inHg
Clouds: Overcast
Visibility: 6 mi
Cloud details: Overcast 600 ft
KBFD 160653Z AUTO 16003KT 6SM -RA BR OVC006 16/16 A2991 RMK AO2 SLP117 P0007 T01610161

Script developed by  Saratoga-weather.org Adapted for the template by  Weerstation Leuven

Equipment we use:

Weather-station
Davis VP2

Weather-program
Cumulus

Weather-server
Dell Inspiron 3521

Provider
Host On A Rope

Davis VP2

Cumulus

Dell Inspiron 3521

Host On A Rope